Terminal Aerodrome Forecast
Issued by NWS

Home | Current Version | Previous Version | Text Only | Print | Product List | Glossary On
Versions: 1 2 3 4 5 6 7 8 9 10 11 12 13 14 15 16 17 18 19
000
FTUS43 KICT 261243 AAA
TAFCNU
TAF AMD
KCNU 261243Z 2613/2712 06011KT 6SM BR SCT005 OVC007
     FM261600 07014G19KT P6SM SCT009 OVC015
     FM261800 08015G21KT P6SM SCT015 BKN025
     FM262000 08016G22KT P6SM SCT030 BKN120
     FM270200 07015KT P6SM SCT030 SCT120=

USA.gov is the U.S. government's official web portal to all federal, state and local government web resources and services.